SWA1635 KPWM-KBWI
Flight info
| Callsign | SWA1635 |
|---|---|
| Flight time | 1h 22m |
| Altitude | 34000 |
| Route | NUBLE4 CCC TOPRR Q167 ZIZZI KNUKK ATR LAFLN MIIDY3 |
| Aircraft | B737/M-SADE2E3GIJ4RWZ/LB1D1 |
Departure
| Time | 2026-04-27 20:54 |
|---|---|
| Airport | Portland International Jetport (KPWM) |
Arrival
| Time | 2026-04-27 22:17 |
|---|---|
| Airport | Baltimore/Washington International Thurgood Marshall Airport (KBWI) |
| Time | Latitude | Longitude | Altitude | Speed | Heading |
|---|---|---|---|---|---|
| 2026-04-27 20:12 | 43.64787 | -70.31358 | 70 ft | 0 kts | 50° |
| 2026-04-27 20:46 | 43.64782 | -70.31367 | 64 ft | 4 kts | 51° |
| 2026-04-27 20:46 | 43.64762 | -70.31408 | 67 ft | 4 kts | 75° |
| 2026-04-27 20:46 | 43.64761 | -70.31429 | 71 ft | 4 kts | 122° |
| 2026-04-27 20:46 | 43.64768 | -70.31440 | 71 ft | 1 kts | 140° |
| 2026-04-27 20:47 | 43.64769 | -70.31441 | 71 ft | 1 kts | 140° |
| 2026-04-27 20:49 | 43.64766 | -70.31437 | 71 ft | 1 kts | 140° |
| 2026-04-27 20:49 | 43.64747 | -70.31416 | 63 ft | 6 kts | 140° |
| 2026-04-27 20:50 | 43.64708 | -70.31371 | 70 ft | 8 kts | 140° |
| 2026-04-27 20:50 | 43.64671 | -70.31328 | 66 ft | 6 kts | 140° |
| 2026-04-27 20:50 | 43.64638 | -70.31280 | 69 ft | 10 kts | 117° |
| 2026-04-27 20:50 | 43.64618 | -70.31167 | 65 ft | 13 kts | 115° |
| 2026-04-27 20:51 | 43.64593 | -70.31047 | 66 ft | 13 kts | 97° |
| 2026-04-27 20:51 | 43.64584 | -70.30925 | 60 ft | 13 kts | 95° |
| 2026-04-27 20:51 | 43.64577 | -70.30805 | 64 ft | 12 kts | 95° |
| 2026-04-27 20:51 | 43.64568 | -70.30689 | 63 ft | 12 kts | 96° |
| 2026-04-27 20:52 | 43.64560 | -70.30573 | 58 ft | 13 kts | 95° |
| 2026-04-27 20:52 | 43.64560 | -70.30430 | 57 ft | 19 kts | 81° |
| 2026-04-27 20:52 | 43.64587 | -70.30252 | 52 ft | 19 kts | 88° |
| 2026-04-27 20:52 | 43.64577 | -70.30073 | 52 ft | 18 kts | 96° |
| 2026-04-27 20:53 | 43.64557 | -70.29935 | 48 ft | 12 kts | 129° |
| 2026-04-27 20:53 | 43.64476 | -70.29910 | 52 ft | 12 kts | 178° |
| 2026-04-27 20:53 | 43.64414 | -70.29955 | 54 ft | 12 kts | 270° |
| 2026-04-27 20:53 | 43.64423 | -70.30195 | 55 ft | 57 kts | 275° |
| 2026-04-27 20:54 | 43.64619 | -70.32720 | 791 ft | 163 kts | 276° |
| 2026-04-27 20:54 | 43.64710 | -70.34220 | 2066 ft | 156 kts | 268° |
| 2026-04-27 20:54 | 43.64750 | -70.35839 | 2766 ft | 189 kts | 272° |
| 2026-04-27 20:55 | 43.64829 | -70.37876 | 3000 ft | 233 kts | 271° |
| 2026-04-27 20:55 | 43.64925 | -70.40300 | 2981 ft | 263 kts | 272° |
| 2026-04-27 20:55 | 43.65023 | -70.42832 | 2999 ft | 267 kts | 269° |
| 2026-04-27 20:55 | 43.64687 | -70.45351 | 3018 ft | 267 kts | 252° |
| 2026-04-27 20:56 | 43.63708 | -70.47498 | 3106 ft | 268 kts | 223° |
| 2026-04-27 20:56 | 43.62203 | -70.49037 | 3973 ft | 271 kts | 212° |
| 2026-04-27 20:56 | 43.60608 | -70.50427 | 5304 ft | 274 kts | 211° |
| 2026-04-27 20:56 | 43.58943 | -70.51842 | 6618 ft | 280 kts | 211° |
| 2026-04-27 20:57 | 43.57255 | -70.53270 | 7907 ft | 288 kts | 211° |
| 2026-04-27 20:57 | 43.55526 | -70.54738 | 9098 ft | 296 kts | 211° |
| 2026-04-27 20:57 | 43.53753 | -70.56248 | 10306 ft | 303 kts | 211° |
| 2026-04-27 20:57 | 43.51911 | -70.57821 | 11293 ft | 319 kts | 211° |
| 2026-04-27 20:58 | 43.50001 | -70.59457 | 12344 ft | 327 kts | 212° |
| 2026-04-27 20:58 | 43.48056 | -70.61125 | 13503 ft | 332 kts | 212° |
| 2026-04-27 20:58 | 43.46088 | -70.62816 | 14661 ft | 336 kts | 212° |
| 2026-04-27 20:58 | 43.44096 | -70.64527 | 15739 ft | 341 kts | 212° |
| 2026-04-27 20:59 | 43.42069 | -70.66269 | 16803 ft | 346 kts | 212° |
| 2026-04-27 20:59 | 43.40013 | -70.68034 | 17871 ft | 350 kts | 212° |
| 2026-04-27 20:59 | 43.37927 | -70.69825 | 18864 ft | 355 kts | 213° |
| 2026-04-27 20:59 | 43.35815 | -70.71635 | 19819 ft | 361 kts | 213° |
| 2026-04-27 21:00 | 43.33669 | -70.73476 | 20760 ft | 367 kts | 213° |
| 2026-04-27 21:00 | 43.31488 | -70.75345 | 21666 ft | 372 kts | 213° |
| 2026-04-27 21:00 | 43.29279 | -70.77234 | 22568 ft | 377 kts | 213° |
| 2026-04-27 21:00 | 43.27042 | -70.79147 | 23427 ft | 382 kts | 213° |
| 2026-04-27 21:01 | 43.24767 | -70.81090 | 24216 ft | 388 kts | 213° |
| 2026-04-27 21:01 | 43.22456 | -70.83061 | 25008 ft | 393 kts | 213° |
| 2026-04-27 21:01 | 43.20124 | -70.85048 | 25803 ft | 397 kts | 213° |
| 2026-04-27 21:01 | 43.17760 | -70.87062 | 26581 ft | 401 kts | 213° |
| 2026-04-27 21:02 | 43.15360 | -70.89105 | 27469 ft | 400 kts | 214° |
| 2026-04-27 21:02 | 43.13731 | -70.90490 | 28139 ft | 398 kts | 214° |
| 2026-04-27 21:02 | 43.11388 | -70.92478 | 29080 ft | 395 kts | 214° |
| 2026-04-27 21:02 | 43.09053 | -70.94459 | 29924 ft | 394 kts | 214° |
| 2026-04-27 21:03 | 43.06728 | -70.96431 | 30721 ft | 393 kts | 214° |
| 2026-04-27 21:03 | 43.04412 | -70.98393 | 31537 ft | 390 kts | 214° |
| 2026-04-27 21:03 | 43.02127 | -71.00326 | 32383 ft | 386 kts | 214° |
| 2026-04-27 21:03 | 42.99846 | -71.02255 | 33110 ft | 384 kts | 214° |
| 2026-04-27 21:04 | 42.97579 | -71.04172 | 33788 ft | 383 kts | 214° |
| 2026-04-27 21:04 | 42.95312 | -71.06087 | 34269 ft | 385 kts | 214° |
| 2026-04-27 21:04 | 42.93044 | -71.08001 | 34261 ft | 381 kts | 214° |
| 2026-04-27 21:05 | 42.88520 | -71.11813 | 34294 ft | 385 kts | 214° |
| 2026-04-27 21:05 | 42.83962 | -71.15647 | 34298 ft | 386 kts | 214° |
| 2026-04-27 21:06 | 42.79390 | -71.19486 | 34297 ft | 386 kts | 214° |
| 2026-04-27 21:06 | 42.74810 | -71.23322 | 34301 ft | 386 kts | 214° |
| 2026-04-27 21:07 | 42.70239 | -71.27146 | 34293 ft | 385 kts | 214° |
| 2026-04-27 21:07 | 42.65689 | -71.30946 | 34296 ft | 384 kts | 214° |
| 2026-04-27 21:08 | 42.61153 | -71.34728 | 34285 ft | 383 kts | 214° |
| 2026-04-27 21:08 | 42.56598 | -71.38519 | 34283 ft | 383 kts | 214° |
| 2026-04-27 21:09 | 42.52060 | -71.42288 | 34280 ft | 383 kts | 214° |
| 2026-04-27 21:09 | 42.47486 | -71.46083 | 34276 ft | 382 kts | 213° |
| 2026-04-27 21:10 | 42.42975 | -71.49815 | 34273 ft | 382 kts | 214° |
| 2026-04-27 21:10 | 42.38383 | -71.53610 | 34282 ft | 391 kts | 216° |
| 2026-04-27 21:11 | 42.33642 | -71.57532 | 34294 ft | 404 kts | 216° |
| 2026-04-27 21:11 | 42.28857 | -71.61469 | 34278 ft | 402 kts | 216° |
| 2026-04-27 21:12 | 42.24094 | -71.65381 | 34276 ft | 399 kts | 216° |
| 2026-04-27 21:12 | 42.19352 | -71.69269 | 34282 ft | 398 kts | 216° |
| 2026-04-27 21:13 | 42.14612 | -71.73153 | 34283 ft | 398 kts | 216° |
| 2026-04-27 21:13 | 42.09877 | -71.77026 | 34283 ft | 399 kts | 216° |
| 2026-04-27 21:14 | 42.05121 | -71.80909 | 34286 ft | 400 kts | 216° |
| 2026-04-27 21:14 | 42.00347 | -71.84799 | 34283 ft | 402 kts | 216° |
| 2026-04-27 21:15 | 41.95558 | -71.88695 | 34278 ft | 403 kts | 216° |
| 2026-04-27 21:15 | 41.90756 | -71.92593 | 34271 ft | 404 kts | 216° |
| 2026-04-27 21:16 | 41.85916 | -71.96515 | 34267 ft | 404 kts | 216° |
| 2026-04-27 21:16 | 41.81105 | -72.00405 | 34256 ft | 403 kts | 216° |
| 2026-04-27 21:17 | 41.76306 | -72.04279 | 34256 ft | 402 kts | 216° |
| 2026-04-27 21:17 | 41.72325 | -72.07489 | 34251 ft | 402 kts | 216° |
| 2026-04-27 21:18 | 41.67534 | -72.11347 | 34254 ft | 401 kts | 216° |
| 2026-04-27 21:18 | 41.62756 | -72.15187 | 34259 ft | 401 kts | 216° |
| 2026-04-27 21:19 | 41.57962 | -72.19033 | 34268 ft | 401 kts | 216° |
| 2026-04-27 21:19 | 41.53138 | -72.22896 | 34270 ft | 402 kts | 217° |
| 2026-04-27 21:20 | 41.45940 | -72.28647 | 34272 ft | 402 kts | 217° |
| 2026-04-27 21:20 | 41.41141 | -72.32474 | 34275 ft | 402 kts | 217° |
| 2026-04-27 21:21 | 41.36334 | -72.36299 | 34284 ft | 402 kts | 217° |
| 2026-04-27 21:21 | 41.31528 | -72.40118 | 34289 ft | 402 kts | 217° |
| 2026-04-27 21:22 | 41.26721 | -72.43931 | 34294 ft | 402 kts | 217° |
| 2026-04-27 21:22 | 41.21921 | -72.47731 | 34294 ft | 402 kts | 217° |
| 2026-04-27 21:23 | 41.17119 | -72.51525 | 34297 ft | 402 kts | 217° |
| 2026-04-27 21:23 | 41.12316 | -72.55316 | 34295 ft | 402 kts | 217° |
| 2026-04-27 21:24 | 41.07507 | -72.59104 | 34293 ft | 402 kts | 217° |
| 2026-04-27 21:24 | 41.02708 | -72.62877 | 34296 ft | 403 kts | 217° |
| 2026-04-27 21:25 | 40.97893 | -72.66657 | 34291 ft | 403 kts | 217° |
| 2026-04-27 21:25 | 40.93037 | -72.70461 | 34303 ft | 403 kts | 217° |
| 2026-04-27 21:26 | 40.88209 | -72.74240 | 34312 ft | 403 kts | 217° |
| 2026-04-27 21:26 | 40.83379 | -72.78012 | 34290 ft | 404 kts | 217° |
| 2026-04-27 21:27 | 40.78538 | -72.81786 | 34297 ft | 404 kts | 217° |
| 2026-04-27 21:27 | 40.73709 | -72.85541 | 34287 ft | 403 kts | 217° |
| 2026-04-27 21:28 | 40.68876 | -72.89296 | 34302 ft | 403 kts | 217° |
| 2026-04-27 21:28 | 40.64043 | -72.93045 | 34294 ft | 403 kts | 218° |
| 2026-04-27 21:29 | 40.59211 | -72.96789 | 34296 ft | 403 kts | 218° |
| 2026-04-27 21:29 | 40.54368 | -73.00532 | 34293 ft | 404 kts | 218° |
| 2026-04-27 21:30 | 40.49521 | -73.04272 | 34299 ft | 405 kts | 218° |
| 2026-04-27 21:30 | 40.44629 | -73.08040 | 34297 ft | 405 kts | 218° |
| 2026-04-27 21:31 | 40.39789 | -73.11764 | 34294 ft | 406 kts | 218° |
| 2026-04-27 21:31 | 40.34879 | -73.15533 | 34299 ft | 407 kts | 218° |
| 2026-04-27 21:32 | 40.29987 | -73.19283 | 34292 ft | 407 kts | 218° |
| 2026-04-27 21:32 | 40.25098 | -73.23024 | 34297 ft | 407 kts | 218° |
| 2026-04-27 21:33 | 40.20201 | -73.26764 | 34293 ft | 408 kts | 218° |
| 2026-04-27 21:33 | 40.15304 | -73.30497 | 34298 ft | 407 kts | 218° |
| 2026-04-27 21:34 | 40.10408 | -73.34225 | 34294 ft | 407 kts | 219° |
| 2026-04-27 21:34 | 40.05506 | -73.37952 | 34305 ft | 408 kts | 219° |
| 2026-04-27 21:35 | 40.00603 | -73.41671 | 34306 ft | 408 kts | 219° |
| 2026-04-27 21:35 | 39.95700 | -73.45387 | 34303 ft | 409 kts | 219° |
| 2026-04-27 21:36 | 39.90782 | -73.49108 | 34312 ft | 409 kts | 219° |
| 2026-04-27 21:36 | 39.85849 | -73.52832 | 34301 ft | 409 kts | 220° |
| 2026-04-27 21:37 | 39.81401 | -73.57190 | 34314 ft | 397 kts | 231° |
| 2026-04-27 21:37 | 39.77234 | -73.61898 | 34312 ft | 397 kts | 231° |
| 2026-04-27 21:38 | 39.73044 | -73.66614 | 34315 ft | 399 kts | 231° |
| 2026-04-27 21:38 | 39.68824 | -73.71306 | 34307 ft | 400 kts | 231° |
| 2026-04-27 21:39 | 39.64559 | -73.76021 | 34302 ft | 400 kts | 231° |
| 2026-04-27 21:39 | 39.60315 | -73.80699 | 34315 ft | 400 kts | 231° |
| 2026-04-27 21:40 | 39.56079 | -73.85364 | 34309 ft | 399 kts | 231° |
| 2026-04-27 21:40 | 39.51849 | -73.90016 | 34311 ft | 398 kts | 231° |
| 2026-04-27 21:41 | 39.47633 | -73.94647 | 34312 ft | 397 kts | 231° |
| 2026-04-27 21:41 | 39.43422 | -73.99264 | 34309 ft | 397 kts | 231° |
| 2026-04-27 21:42 | 39.39206 | -74.03878 | 34297 ft | 396 kts | 231° |
| 2026-04-27 21:42 | 39.34999 | -74.08484 | 34314 ft | 396 kts | 231° |
| 2026-04-27 21:43 | 39.30787 | -74.13090 | 34305 ft | 397 kts | 231° |
| 2026-04-27 21:43 | 39.26576 | -74.17688 | 34297 ft | 397 kts | 231° |
| 2026-04-27 21:44 | 39.22356 | -74.22288 | 34311 ft | 397 kts | 231° |
| 2026-04-27 21:44 | 39.18127 | -74.26890 | 34312 ft | 397 kts | 231° |
| 2026-04-27 21:45 | 39.13898 | -74.31483 | 34301 ft | 397 kts | 231° |
| 2026-04-27 21:45 | 39.09679 | -74.36059 | 34302 ft | 397 kts | 231° |
| 2026-04-27 21:46 | 39.05457 | -74.40633 | 34313 ft | 396 kts | 231° |
| 2026-04-27 21:46 | 39.01241 | -74.45194 | 34314 ft | 396 kts | 231° |
| 2026-04-27 21:47 | 38.96995 | -74.49781 | 34311 ft | 395 kts | 233° |
| 2026-04-27 21:47 | 38.95166 | -74.52289 | 34313 ft | 375 kts | 247° |
| 2026-04-27 21:47 | 38.93850 | -74.55098 | 34317 ft | 360 kts | 258° |
| 2026-04-27 21:48 | 38.93014 | -74.58039 | 34313 ft | 344 kts | 268° |
| 2026-04-27 21:48 | 38.92439 | -74.61013 | 34315 ft | 343 kts | 269° |
| 2026-04-27 21:48 | 38.91317 | -74.66970 | 34311 ft | 344 kts | 268° |
| 2026-04-27 21:49 | 38.90148 | -74.72943 | 34319 ft | 346 kts | 268° |
| 2026-04-27 21:49 | 38.89171 | -74.77919 | 34309 ft | 346 kts | 268° |
| 2026-04-27 21:50 | 38.88041 | -74.83947 | 33941 ft | 347 kts | 269° |
| 2026-04-27 21:50 | 38.87478 | -74.86956 | 33495 ft | 347 kts | 269° |
| 2026-04-27 21:50 | 38.86913 | -74.89964 | 33059 ft | 346 kts | 268° |
| 2026-04-27 21:51 | 38.86347 | -74.92969 | 32583 ft | 347 kts | 268° |
| 2026-04-27 21:51 | 38.85780 | -74.95974 | 32100 ft | 347 kts | 268° |
| 2026-04-27 21:51 | 38.85204 | -74.99025 | 31594 ft | 348 kts | 267° |
| 2026-04-27 21:51 | 38.84632 | -75.02042 | 31086 ft | 348 kts | 267° |
| 2026-04-27 21:52 | 38.84059 | -75.05060 | 30562 ft | 349 kts | 266° |
| 2026-04-27 21:52 | 38.83484 | -75.08089 | 30025 ft | 349 kts | 266° |
| 2026-04-27 21:52 | 38.82908 | -75.11117 | 29431 ft | 350 kts | 266° |
| 2026-04-27 21:52 | 38.82330 | -75.14148 | 28807 ft | 351 kts | 265° |
| 2026-04-27 21:53 | 38.81748 | -75.17194 | 28164 ft | 352 kts | 265° |
| 2026-04-27 21:53 | 38.81168 | -75.20253 | 27498 ft | 354 kts | 266° |
| 2026-04-27 21:53 | 38.80803 | -75.23356 | 26752 ft | 353 kts | 272° |
| 2026-04-27 21:53 | 38.80606 | -75.26511 | 26015 ft | 358 kts | 273° |
| 2026-04-27 21:54 | 38.80429 | -75.29714 | 25240 ft | 361 kts | 273° |
| 2026-04-27 21:54 | 38.80247 | -75.32935 | 24434 ft | 364 kts | 272° |
| 2026-04-27 21:54 | 38.80055 | -75.36180 | 23592 ft | 366 kts | 272° |
| 2026-04-27 21:54 | 38.79855 | -75.39446 | 22728 ft | 369 kts | 272° |
| 2026-04-27 21:55 | 38.79649 | -75.42707 | 22039 ft | 366 kts | 271° |
| 2026-04-27 21:55 | 38.79442 | -75.45947 | 21336 ft | 363 kts | 271° |
| 2026-04-27 21:55 | 38.79236 | -75.49167 | 20640 ft | 361 kts | 271° |
| 2026-04-27 21:55 | 38.79031 | -75.52361 | 19908 ft | 359 kts | 270° |
| 2026-04-27 21:56 | 38.78825 | -75.55569 | 18967 ft | 363 kts | 270° |
| 2026-04-27 21:56 | 38.78411 | -75.62004 | 17462 ft | 360 kts | 270° |
| 2026-04-27 21:56 | 38.78203 | -75.65186 | 16773 ft | 356 kts | 269° |
| 2026-04-27 21:57 | 38.77997 | -75.68327 | 16103 ft | 352 kts | 269° |
| 2026-04-27 21:57 | 38.77793 | -75.71442 | 15414 ft | 349 kts | 269° |
| 2026-04-27 21:57 | 38.77591 | -75.74515 | 14743 ft | 345 kts | 269° |
| 2026-04-27 21:57 | 38.77390 | -75.77566 | 14069 ft | 342 kts | 269° |
| 2026-04-27 21:58 | 38.77191 | -75.80586 | 13404 ft | 339 kts | 269° |
| 2026-04-27 21:58 | 38.76989 | -75.83624 | 12728 ft | 336 kts | 269° |
| 2026-04-27 21:58 | 38.76794 | -75.86553 | 12076 ft | 333 kts | 269° |
| 2026-04-27 21:58 | 38.76595 | -75.89540 | 11408 ft | 331 kts | 269° |
| 2026-04-27 21:59 | 38.76401 | -75.92403 | 11196 ft | 313 kts | 269° |
| 2026-04-27 21:59 | 38.76217 | -75.95089 | 11033 ft | 291 kts | 269° |
| 2026-04-27 21:59 | 38.76046 | -75.97640 | 10887 ft | 286 kts | 269° |
| 2026-04-27 21:59 | 38.75875 | -76.00194 | 10733 ft | 291 kts | 269° |
| 2026-04-27 22:00 | 38.75700 | -76.02796 | 10583 ft | 295 kts | 268° |
| 2026-04-27 22:00 | 38.75572 | -76.05419 | 10398 ft | 295 kts | 277° |
| 2026-04-27 22:00 | 38.76082 | -76.07909 | 10224 ft | 287 kts | 300° |
| 2026-04-27 22:00 | 38.77102 | -76.10079 | 10086 ft | 279 kts | 305° |
| 2026-04-27 22:01 | 38.78146 | -76.12128 | 9830 ft | 272 kts | 306° |
| 2026-04-27 22:01 | 38.79169 | -76.14138 | 9555 ft | 269 kts | 306° |
| 2026-04-27 22:01 | 38.80189 | -76.16154 | 9301 ft | 272 kts | 306° |
| 2026-04-27 22:01 | 38.81219 | -76.18203 | 9023 ft | 275 kts | 305° |
| 2026-04-27 22:02 | 38.82252 | -76.20269 | 8730 ft | 274 kts | 305° |
| 2026-04-27 22:02 | 38.83277 | -76.22327 | 8450 ft | 273 kts | 305° |
| 2026-04-27 22:02 | 38.84293 | -76.24370 | 8175 ft | 271 kts | 305° |
| 2026-04-27 22:02 | 38.85303 | -76.26402 | 7902 ft | 269 kts | 304° |
| 2026-04-27 22:03 | 38.86308 | -76.28427 | 7622 ft | 269 kts | 305° |
| 2026-04-27 22:03 | 38.87247 | -76.30490 | 7342 ft | 268 kts | 297° |
| 2026-04-27 22:03 | 38.87942 | -76.32717 | 7075 ft | 269 kts | 292° |
| 2026-04-27 22:03 | 38.88569 | -76.34972 | 6803 ft | 268 kts | 291° |
| 2026-04-27 22:04 | 38.89193 | -76.37222 | 6538 ft | 267 kts | 292° |
| 2026-04-27 22:04 | 38.89825 | -76.39458 | 6254 ft | 267 kts | 292° |
| 2026-04-27 22:04 | 38.90469 | -76.41692 | 5978 ft | 266 kts | 292° |
| 2026-04-27 22:04 | 38.91115 | -76.43913 | 5707 ft | 265 kts | 292° |
| 2026-04-27 22:05 | 38.91761 | -76.46123 | 5444 ft | 263 kts | 292° |
| 2026-04-27 22:05 | 38.92410 | -76.48341 | 5176 ft | 261 kts | 292° |
| 2026-04-27 22:05 | 38.93085 | -76.50483 | 5050 ft | 263 kts | 298° |
| 2026-04-27 22:05 | 38.93974 | -76.52538 | 5030 ft | 263 kts | 302° |
| 2026-04-27 22:06 | 38.94911 | -76.54578 | 5019 ft | 261 kts | 302° |
| 2026-04-27 22:06 | 38.95797 | -76.56529 | 5024 ft | 261 kts | 302° |
| 2026-04-27 22:06 | 38.96705 | -76.58549 | 5015 ft | 260 kts | 302° |
| 2026-04-27 22:06 | 38.97594 | -76.60534 | 4912 ft | 254 kts | 302° |
| 2026-04-27 22:07 | 38.98469 | -76.62482 | 4758 ft | 249 kts | 302° |
| 2026-04-27 22:07 | 38.99331 | -76.64406 | 4622 ft | 248 kts | 302° |
| 2026-04-27 22:07 | 39.00192 | -76.66333 | 4497 ft | 250 kts | 301° |
| 2026-04-27 22:07 | 39.01058 | -76.68268 | 4342 ft | 249 kts | 302° |
| 2026-04-27 22:08 | 39.01923 | -76.70205 | 4218 ft | 248 kts | 302° |
| 2026-04-27 22:08 | 39.02770 | -76.72101 | 4060 ft | 239 kts | 302° |
| 2026-04-27 22:08 | 39.03581 | -76.73910 | 4022 ft | 230 kts | 302° |
| 2026-04-27 22:08 | 39.04375 | -76.75667 | 4001 ft | 225 kts | 302° |
| 2026-04-27 22:09 | 39.05161 | -76.77402 | 4015 ft | 224 kts | 302° |
| 2026-04-27 22:09 | 39.05949 | -76.79140 | 4035 ft | 226 kts | 302° |
| 2026-04-27 22:09 | 39.06747 | -76.80903 | 4023 ft | 229 kts | 302° |
| 2026-04-27 22:09 | 39.07528 | -76.82686 | 4017 ft | 229 kts | 296° |
| 2026-04-27 22:10 | 39.08099 | -76.84606 | 4016 ft | 230 kts | 290° |
| 2026-04-27 22:10 | 39.08434 | -76.85905 | 4025 ft | 231 kts | 289° |
| 2026-04-27 22:10 | 39.09112 | -76.88546 | 4016 ft | 234 kts | 290° |
| 2026-04-27 22:10 | 39.09633 | -76.90536 | 4016 ft | 234 kts | 290° |
| 2026-04-27 22:11 | 39.10154 | -76.92503 | 3998 ft | 231 kts | 293° |
| 2026-04-27 22:11 | 39.11115 | -76.94114 | 3777 ft | 228 kts | 330° |
| 2026-04-27 22:11 | 39.12574 | -76.94685 | 3626 ft | 218 kts | 3° |
| 2026-04-27 22:11 | 39.14026 | -76.94277 | 3440 ft | 213 kts | 27° |
| 2026-04-27 22:12 | 39.15325 | -76.93350 | 3275 ft | 215 kts | 32° |
| 2026-04-27 22:12 | 39.16608 | -76.92377 | 3115 ft | 214 kts | 32° |
| 2026-04-27 22:12 | 39.17804 | -76.91253 | 3023 ft | 214 kts | 53° |
| 2026-04-27 22:12 | 39.18280 | -76.89501 | 3033 ft | 208 kts | 83° |
| 2026-04-27 22:13 | 39.18389 | -76.87630 | 2953 ft | 213 kts | 85° |
| 2026-04-27 22:13 | 39.18426 | -76.85702 | 2693 ft | 216 kts | 91° |
| 2026-04-27 22:13 | 39.18342 | -76.83783 | 2426 ft | 211 kts | 94° |
| 2026-04-27 22:13 | 39.18228 | -76.81939 | 2168 ft | 199 kts | 94° |
| 2026-04-27 22:14 | 39.18127 | -76.80223 | 1902 ft | 185 kts | 94° |
| 2026-04-27 22:14 | 39.18033 | -76.78623 | 1646 ft | 171 kts | 94° |
| 2026-04-27 22:14 | 39.17946 | -76.77134 | 1441 ft | 161 kts | 94° |
| 2026-04-27 22:14 | 39.17867 | -76.75742 | 1220 ft | 150 kts | 94° |
| 2026-04-27 22:15 | 39.17792 | -76.74461 | 1064 ft | 133 kts | 94° |
| 2026-04-27 22:15 | 39.17726 | -76.73326 | 858 ft | 121 kts | 95° |
| 2026-04-27 22:15 | 39.17664 | -76.72278 | 713 ft | 116 kts | 95° |
| 2026-04-27 22:15 | 39.17607 | -76.71239 | 567 ft | 117 kts | 95° |
| 2026-04-27 22:16 | 39.17545 | -76.70184 | 406 ft | 119 kts | 95° |
| 2026-04-27 22:16 | 39.17482 | -76.69127 | 226 ft | 119 kts | 93° |
| 2026-04-27 22:16 | 39.17430 | -76.68086 | 149 ft | 107 kts | 95° |
| 2026-04-27 22:16 | 39.17377 | -76.67287 | 150 ft | 72 kts | 95° |
| 2026-04-27 22:17 | 39.17351 | -76.66794 | 151 ft | 41 kts | 92° |
| 2026-04-27 22:17 | 39.17367 | -76.66618 | 152 ft | 14 kts | 47° |
| 2026-04-27 22:17 | 39.17443 | -76.66632 | 153 ft | 13 kts | 291° |
| 2026-04-27 22:17 | 39.17456 | -76.66746 | 153 ft | 13 kts | 278° |
| 2026-04-27 22:18 | 39.17501 | -76.66842 | 155 ft | 13 kts | 314° |
| 2026-04-27 22:18 | 39.17538 | -76.66943 | 155 ft | 12 kts | 290° |
| 2026-04-27 22:18 | 39.17584 | -76.67035 | 155 ft | 12 kts | 319° |
| 2026-04-27 22:18 | 39.17657 | -76.67105 | 155 ft | 13 kts | 324° |
| 2026-04-27 22:19 | 39.17731 | -76.67173 | 154 ft | 13 kts | 321° |
| 2026-04-27 22:19 | 39.17807 | -76.67231 | 154 ft | 13 kts | 355° |
| 2026-04-27 22:19 | 39.17848 | -76.67179 | 155 ft | 7 kts | 57° |
| 2026-04-27 22:19 | 39.17860 | -76.67157 | 155 ft | 3 kts | 53° |
| 2026-04-27 22:20 | 39.17862 | -76.67154 | 155 ft | 0 kts | 53° |